Time;durP1;ratioP1;P1;durP2;ratioP2;P2;SDS_P1;SDS_P2;PMS_P1;PMS_P2;Temp;Humidity;BMP_temperature;BMP_pressure;BME280_temperature;BME280_humidity;BME280_pressure;Samples;Min_cycle;Max_cycle;Signal;HPM_P1;HPM_P2
2021/05/30 00:02:18;;;;;;;22.33;17.97;;;13.20;99.90;;;;;;5020391;28;20424;-83
2021/05/30 00:04:44;;;;;;;18.47;16.67;;;13.10;99.90;;;;;;5054461;28;20202;-88
2021/05/30 00:07:11;;;;;;;19.27;17.17;;;13.10;99.90;;;;;;5054303;28;20415;-82
2021/05/30 00:09:40;;;;;;;20.30;18.17;;;13.10;99.90;;;;;;5036720;28;20513;-82
2021/05/30 00:12:08;;;;;;;19.80;17.80;;;13.00;99.90;;;;;;5053860;28;20419;-82
2021/05/30 00:14:35;;;;;;;19.27;17.27;;;13.00;99.90;;;;;;5053999;28;20420;-82
2021/05/30 00:17:00;;;;;;;18.73;16.83;;;13.00;99.90;;;;;;5035353;28;20440;-82
2021/05/30 00:19:26;;;;;;;19.53;17.53;;;13.00;99.90;;;;;;5036567;28;20923;-82
2021/05/30 00:21:52;;;;;;;19.57;17.70;;;12.90;99.90;;;;;;5035931;28;20178;-82
2021/05/30 00:24:19;;;;;;;21.90;19.80;;;12.90;99.90;;;;;;5054285;28;20410;-82
2021/05/30 00:26:45;;;;;;;20.00;17.90;;;12.80;99.90;;;;;;5054143;28;20424;-86
2021/05/30 00:29:11;;;;;;;18.73;16.73;;;12.80;99.90;;;;;;5053774;28;20439;-82
2021/05/30 00:31:37;;;;;;;21.20;18.90;;;12.80;99.90;;;;;;5036415;28;20396;-82
2021/05/30 00:34:03;;;;;;;19.27;17.20;;;12.80;99.90;;;;;;5035600;28;20180;-82
2021/05/30 00:36:29;;;;;;;19.07;16.90;;;12.80;99.90;;;;;;5054317;28;20466;-82
2021/05/30 00:38:55;;;;;;;18.37;16.33;;;12.70;99.90;;;;;;5053267;28;20408;-82
2021/05/30 00:41:20;;;;;;;19.30;17.00;;;12.70;99.90;;;;;;5035902;28;20722;-82
2021/05/30 00:43:52;;;;;;;18.77;16.37;;;12.70;99.90;;;;;;5053764;28;20424;-86
2021/05/30 00:46:19;;;;;;;20.30;18.27;;;12.60;99.90;;;;;;5053840;28;20180;-82
2021/05/30 00:48:45;;;;;;;19.97;17.87;;;12.60;99.90;;;;;;5053421;28;20411;-82
2021/05/30 00:51:11;;;;;;;20.43;18.23;;;12.60;99.90;;;;;;5053253;28;20431;-82
2021/05/30 00:53:37;;;;;;;20.70;18.57;;;12.60;99.90;;;;;;5053778;28;20404;-82
2021/05/30 00:56:09;;;;;;;19.83;17.90;;;12.60;99.90;;;;;;5052827;28;20451;-82
2021/05/30 00:58:35;;;;;;;19.73;17.83;;;12.50;99.90;;;;;;5036136;28;20489;-81
2021/05/30 01:01:01;;;;;;;19.17;17.17;;;12.50;99.90;;;;;;5052851;28;20406;-82
2021/05/30 01:03:27;;;;;;;19.57;17.47;;;12.50;99.90;;;;;;5053547;28;20402;-82
2021/05/30 01:05:54;;;;;;;19.10;17.20;;;12.50;99.90;;;;;;5052822;28;20482;-83
2021/05/30 01:08:26;;;;;;;20.20;18.20;;;12.50;99.90;;;;;;5035984;28;20196;-82
2021/05/30 01:10:57;;;;;;;19.73;16.73;;;12.40;99.90;;;;;;5034908;28;20388;-83
2021/05/30 01:13:24;;;;;;;18.80;16.90;;;12.40;99.90;;;;;;5035417;28;20410;-82
2021/05/30 01:15:50;;;;;;;18.43;16.50;;;12.40;99.90;;;;;;5034729;28;20578;-86
2021/05/30 01:18:20;;;;;;;19.73;17.73;;;12.40;99.90;;;;;;5035420;28;20427;-82
2021/05/30 01:20:46;;;;;;;19.13;17.13;;;12.40;99.90;;;;;;5053287;28;20431;-82
2021/05/30 01:23:13;;;;;;;20.10;18.00;;;12.40;99.90;;;;;;5052444;28;20409;-83
2021/05/30 01:25:39;;;;;;;20.17;18.00;;;12.10;99.90;;;;;;5035328;28;20454;-82
2021/05/30 01:28:05;;;;;;;20.90;18.80;;;12.10;99.90;;;;;;5051376;28;20818;-82
2021/05/30 01:30:32;;;;;;;20.33;17.80;;;12.10;99.90;;;;;;5053094;28;20180;-82
2021/05/30 01:32:58;;;;;;;18.60;16.53;;;12.10;99.90;;;;;;5034410;28;20486;-82
2021/05/30 01:35:24;;;;;;;18.77;16.63;;;12.10;99.90;;;;;;5035141;28;20465;-82
2021/05/30 01:37:51;;;;;;;18.50;16.33;;;12.10;99.90;;;;;;5052877;28;20425;-87
2021/05/30 01:40:18;;;;;;;18.70;16.70;;;12.20;99.90;;;;;;5034861;28;20552;-82
2021/05/30 01:42:44;;;;;;;17.83;16.03;;;12.20;99.90;;;;;;5052734;28;20409;-83
2021/05/30 01:45:11;;;;;;;18.50;16.47;;;12.20;99.90;;;;;;5052074;28;20458;-82
2021/05/30 01:47:39;;;;;;;19.30;17.30;;;12.10;99.90;;;;;;5052575;28;20544;-82
2021/05/30 01:50:10;;;;;;;18.97;17.07;;;12.10;99.90;;;;;;5051906;28;20421;-83
2021/05/30 01:52:37;;;;;;;19.63;16.37;;;12.10;99.90;;;;;;5052814;28;20451;-83
2021/05/30 01:55:04;;;;;;;19.53;17.53;;;12.10;99.90;;;;;;5051872;28;20989;-82
2021/05/30 01:57:32;;;;;;;19.37;16.37;;;12.10;99.90;;;;;;5052680;28;20419;-82
2021/05/30 01:59:58;;;;;;;17.83;16.03;;;12.10;99.90;;;;;;5034180;28;20403;-82
2021/05/30 02:02:24;;;;;;;17.27;15.67;;;12.00;99.90;;;;;;5052639;28;20565;-82
2021/05/30 02:04:53;;;;;;;18.50;16.60;;;12.00;99.90;;;;;;5018324;28;20176;-87
2021/05/30 02:07:20;;;;;;;18.37;15.90;;;12.00;99.90;;;;;;5052342;28;20426;-82
2021/05/30 02:09:47;;;;;;;17.03;15.33;;;12.00;99.90;;;;;;5052472;28;20453;-82
2021/05/30 02:12:14;;;;;;;17.57;15.67;;;11.90;99.90;;;;;;5033813;28;21031;-82
2021/05/30 02:14:40;;;;;;;18.50;16.60;;;12.00;99.90;;;;;;5051946;28;20429;-83
2021/05/30 02:17:06;;;;;;;16.50;14.80;;;11.90;99.90;;;;;;5051500;28;20407;-82
2021/05/30 02:19:32;;;;;;;16.50;14.87;;;11.90;99.90;;;;;;5034757;28;20251;-83
2021/05/30 02:22:00;;;;;;;17.53;15.20;;;11.80;99.90;;;;;;5033631;28;20178;-83
2021/05/30 02:24:26;;;;;;;15.97;14.10;;;11.90;99.90;;;;;;5034637;28;20602;-82
2021/05/30 02:26:52;;;;;;;16.30;14.63;;;11.80;99.90;;;;;;5052093;28;20413;-87
2021/05/30 02:29:28;;;;;;;17.30;14.53;;;11.80;99.90;;;;;;5051470;28;20173;-82
2021/05/30 02:31:53;;;;;;;15.20;13.60;;;11.70;99.90;;;;;;5051992;28;20159;-87
2021/05/30 02:34:19;;;;;;;15.87;14.03;;;11.70;99.90;;;;;;5051642;28;20514;-82
2021/05/30 02:36:45;;;;;;;16.27;14.67;;;11.70;99.90;;;;;;5052078;28;20211;-82
2021/05/30 02:39:10;;;;;;;16.73;14.40;;;11.70;99.90;;;;;;5052881;28;20173;-83
2021/05/30 02:41:36;;;;;;;16.47;14.77;;;11.70;99.90;;;;;;5058456;28;20658;-82
2021/05/30 02:44:02;;;;;;;16.20;14.50;;;11.70;99.90;;;;;;5039659;28;20180;-83
2021/05/30 02:46:28;;;;;;;16.47;14.77;;;11.60;99.90;;;;;;5041069;28;20183;-82
2021/05/30 02:48:53;;;;;;;16.43;14.73;;;11.50;99.90;;;;;;5040560;28;20627;-87
2021/05/30 02:51:19;;;;;;;15.90;14.33;;;11.50;99.90;;;;;;5058574;28;20184;-82
2021/05/30 02:53:45;;;;;;;16.00;14.53;;;11.50;99.90;;;;;;5058969;28;20656;-82
2021/05/30 02:56:10;;;;;;;15.70;14.07;;;11.50;99.90;;;;;;5057643;28;20213;-82
2021/05/30 02:58:36;;;;;;;16.20;14.70;;;11.50;99.90;;;;;;5058315;28;20224;-83
2021/05/30 03:01:02;;;;;;;17.57;15.63;;;11.50;99.90;;;;;;5057817;28;20336;-83
2021/05/30 03:03:27;;;;;;;17.80;15.40;;;11.50;99.90;;;;;;5058573;28;20576;-83
2021/05/30 03:05:53;;;;;;;16.70;15.00;;;11.50;99.90;;;;;;5058538;28;20173;-83
2021/05/30 03:08:19;;;;;;;17.60;15.80;;;11.50;99.90;;;;;;5057939;28;20344;-83
2021/05/30 03:10:45;;;;;;;19.60;14.33;;;11.40;99.90;;;;;;5040492;28;20181;-82
2021/05/30 03:13:10;;;;;;;17.17;14.87;;;11.50;99.90;;;;;;5057965;28;20175;-83
2021/05/30 03:15:38;;;;;;;17.47;15.50;;;11.40;99.90;;;;;;5058498;28;20219;-83
2021/05/30 03:18:05;;;;;;;16.57;14.87;;;11.40;99.90;;;;;;5057692;28;20240;-83
2021/05/30 03:20:30;;;;;;;16.20;14.53;;;11.40;99.90;;;;;;5040339;28;20932;-83
2021/05/30 03:22:56;;;;;;;16.63;14.83;;;11.40;99.90;;;;;;5040032;28;20414;-88
2021/05/30 03:25:22;;;;;;;17.17;15.37;;;11.50;99.90;;;;;;5058339;28;20174;-82
2021/05/30 03:27:49;;;;;;;17.20;15.53;;;11.40;99.90;;;;;;5058230;28;20705;-82
2021/05/30 03:30:15;;;;;;;17.33;15.57;;;11.40;99.90;;;;;;5039393;28;21060;-83
2021/05/30 03:32:41;;;;;;;16.23;14.73;;;11.40;99.90;;;;;;5040578;28;20491;-82
2021/05/30 03:35:07;;;;;;;16.87;14.67;;;11.40;99.90;;;;;;5039453;28;20470;-83
2021/05/30 03:37:33;;;;;;;15.90;14.27;;;11.40;99.90;;;;;;5058348;28;20183;-82
2021/05/30 03:40:02;;;;;;;15.03;13.57;;;11.40;99.90;;;;;;5058023;28;20747;-86
2021/05/30 03:42:31;;;;;;;15.80;14.23;;;11.30;99.90;;;;;;5058184;28;20258;-82
2021/05/30 03:44:58;;;;;;;16.83;15.20;;;11.30;99.90;;;;;;5057963;28;20402;-87
2021/05/30 03:47:24;;;;;;;15.73;13.67;;;11.30;99.90;;;;;;5057779;28;20948;-83
2021/05/30 03:49:51;;;;;;;16.10;14.50;;;11.30;99.90;;;;;;5040484;28;20418;-83
2021/05/30 03:52:17;;;;;;;16.07;14.47;;;11.30;99.90;;;;;;5053548;28;20437;-83
2021/05/30 03:54:43;;;;;;;16.90;14.40;;;11.20;99.90;;;;;;5054925;28;20422;-83
2021/05/30 03:57:09;;;;;;;17.70;16.00;;;11.20;99.90;;;;;;5036261;28;20190;-83
2021/05/30 03:59:35;;;;;;;17.10;15.50;;;11.20;99.90;;;;;;5037473;28;20422;-83
2021/05/30 04:02:01;;;;;;;15.47;13.87;;;11.20;99.90;;;;;;5036133;28;20428;-87
2021/05/30 04:04:27;;;;;;;16.73;15.00;;;11.20;99.90;;;;;;5054840;28;20437;-83
2021/05/30 04:06:52;;;;;;;17.30;14.80;;;11.20;99.90;;;;;;5054685;28;20227;-82
2021/05/30 04:09:18;;;;;;;16.47;14.73;;;11.20;99.90;;;;;;5035879;28;20188;-83
2021/05/30 04:11:44;;;;;;;18.53;15.40;;;11.20;99.90;;;;;;5054549;28;20187;-82
2021/05/30 04:14:09;;;;;;;16.80;15.03;;;11.10;99.90;;;;;;5053606;28;20228;-85
2021/05/30 04:16:35;;;;;;;16.90;15.10;;;11.10;99.90;;;;;;5054008;28;20570;-83
2021/05/30 04:19:01;;;;;;;17.60;15.10;;;11.00;99.90;;;;;;5035837;28;20183;-87
2021/05/30 04:21:26;;;;;;;19.90;16.30;;;11.20;99.90;;;;;;5036343;28;20178;-83
2021/05/30 04:23:52;;;;;;;18.07;15.83;;;11.20;99.90;;;;;;5054314;28;20193;-83
2021/05/30 04:26:18;;;;;;;17.53;15.60;;;11.10;99.90;;;;;;5053246;28;20541;-83
2021/05/30 04:28:45;;;;;;;19.17;15.40;;;11.10;99.90;;;;;;5036609;28;20259;-83
2021/05/30 04:31:11;;;;;;;17.33;15.50;;;11.20;99.90;;;;;;5035691;28;20249;-83
2021/05/30 04:33:36;;;;;;;18.07;15.97;;;11.20;99.90;;;;;;5036498;28;20498;-83
2021/05/30 04:36:03;;;;;;;16.30;14.63;;;11.20;99.90;;;;;;5035410;28;20475;-87
2021/05/30 04:38:29;;;;;;;17.07;15.37;;;11.30;99.90;;;;;;5036367;28;20438;-83
2021/05/30 04:40:55;;;;;;;17.03;15.23;;;11.30;99.90;;;;;;5054042;28;20608;-82
2021/05/30 04:43:21;;;;;;;18.70;15.13;;;11.30;99.90;;;;;;5035713;28;20478;-83
2021/05/30 04:45:46;;;;;;;18.70;15.90;;;11.40;99.90;;;;;;5053888;28;20198;-83
2021/05/30 04:48:12;;;;;;;20.00;17.60;;;11.40;99.90;;;;;;5053289;28;20178;-83
2021/05/30 04:50:38;;;;;;;18.00;16.10;;;11.50;99.90;;;;;;5054162;28;20189;-82
2021/05/30 04:53:04;;;;;;;21.67;19.33;;;11.40;99.90;;;;;;5035412;28;20185;-87
2021/05/30 04:55:30;;;;;;;30.13;22.87;;;11.40;99.90;;;;;;5036040;28;20465;-83
2021/05/30 04:57:55;;;;;;;21.13;18.73;;;11.40;99.90;;;;;;5036031;28;20188;-83
2021/05/30 05:00:21;;;;;;;20.13;17.90;;;11.40;99.90;;;;;;5052727;28;20190;-83
2021/05/30 05:02:47;;;;;;;20.47;17.77;;;11.40;99.90;;;;;;5035782;28;20577;-83
2021/05/30 05:05:13;;;;;;;19.80;17.70;;;11.40;99.90;;;;;;5035023;28;20411;-83
2021/05/30 05:07:41;;;;;;;19.20;17.20;;;11.40;99.90;;;;;;5053581;28;20892;-83
2021/05/30 05:10:08;;;;;;;19.50;17.50;;;11.40;99.90;;;;;;5035035;28;20928;-84
2021/05/30 05:12:35;;;;;;;22.23;18.63;;;11.30;99.90;;;;;;5053803;28;20812;-83
2021/05/30 05:15:01;;;;;;;22.20;19.73;;;11.30;99.90;;;;;;5053189;28;20496;-83
2021/05/30 05:17:26;;;;;;;25.53;21.60;;;11.20;99.90;;;;;;5034532;28;20476;-83
2021/05/30 05:19:53;;;;;;;24.50;20.80;;;11.20;99.90;;;;;;5018967;28;20243;-84
2021/05/30 05:22:19;;;;;;;20.40;18.30;;;11.30;99.90;;;;;;5052512;28;20185;-82
2021/05/30 05:24:45;;;;;;;20.37;18.27;;;11.30;99.90;;;;;;5035547;28;20416;-82
2021/05/30 05:27:11;;;;;;;21.43;19.13;;;11.40;99.90;;;;;;5034785;28;20405;-82
2021/05/30 05:29:36;;;;;;;22.73;18.87;;;11.40;99.90;;;;;;5053357;28;20567;-82
2021/05/30 05:32:03;;;;;;;23.70;19.80;;;11.40;99.90;;;;;;5052994;28;20174;-85
2021/05/30 05:34:28;;;;;;;20.30;18.10;;;11.40;99.90;;;;;;5052490;28;20260;-82
2021/05/30 05:36:54;;;;;;;20.83;18.63;;;11.50;99.90;;;;;;5052682;28;20552;-82
2021/05/30 05:39:20;;;;;;;18.47;16.43;;;11.60;99.90;;;;;;5033889;28;20187;-82
2021/05/30 05:41:49;;;;;;;20.03;17.93;;;11.70;99.90;;;;;;5035032;28;20184;-82
2021/05/30 05:44:15;;;;;;;20.67;18.50;;;11.70;99.90;;;;;;5052150;28;20898;-82
2021/05/30 05:46:40;;;;;;;23.27;20.77;;;11.80;99.90;;;;;;5034844;28;20472;-82
2021/05/30 05:49:06;;;;;;;21.60;19.00;;;11.90;99.90;;;;;;5051867;28;20431;-87
2021/05/30 05:51:32;;;;;;;22.00;18.50;;;12.00;99.90;;;;;;5052701;28;20414;-82
2021/05/30 05:53:58;;;;;;;22.23;18.70;;;12.00;99.90;;;;;;5034698;28;20182;-82
2021/05/30 05:56:23;;;;;;;22.17;19.87;;;12.10;99.90;;;;;;5051555;28;20537;-82
2021/05/30 05:58:49;;;;;;;20.57;18.47;;;12.20;99.90;;;;;;5052461;28;20651;-82
2021/05/30 06:01:15;;;;;;;22.00;19.77;;;12.30;99.90;;;;;;5034181;28;20179;-82
2021/05/30 06:03:40;;;;;;;26.83;18.53;;;12.20;99.90;;;;;;5052518;28;20178;-82
2021/05/30 06:06:06;;;;;;;20.67;18.30;;;12.20;99.90;;;;;;5034441;28;20233;-87
2021/05/30 06:08:32;;;;;;;22.13;18.07;;;12.30;99.90;;;;;;5052157;28;20177;-82
2021/05/30 06:10:58;;;;;;;19.03;17.00;;;12.30;99.90;;;;;;5052233;28;20239;-82
2021/05/30 06:13:24;;;;;;;20.63;18.43;;;12.50;99.90;;;;;;5051537;28;20166;-83
2021/05/30 06:15:50;;;;;;;18.30;16.30;;;12.60;99.90;;;;;;5051434;28;20312;-81
2021/05/30 06:18:17;;;;;;;22.60;16.77;;;12.60;99.90;;;;;;5033599;28;20507;-82
2021/05/30 06:20:45;;;;;;;17.27;15.53;;;12.70;99.90;;;;;;5052528;28;20495;-82
2021/05/30 06:23:12;;;;;;;17.70;15.90;;;12.80;99.90;;;;;;5051434;28;20938;-83
2021/05/30 06:25:38;;;;;;;18.17;16.30;;;12.80;99.90;;;;;;5052365;28;20953;-82
2021/05/30 06:28:04;;;;;;;21.47;16.23;;;12.80;99.90;;;;;;5052168;28;20461;-82
2021/05/30 06:30:34;;;;;;;18.50;16.17;;;12.90;99.90;;;;;;5033344;28;20892;-82
2021/05/30 06:33:00;;;;;;;19.07;15.70;;;13.00;99.90;;;;;;5033985;28;20483;-81
2021/05/30 06:35:28;;;;;;;17.70;15.87;;;13.20;99.90;;;;;;5051502;28;21349;-82
2021/05/30 06:37:54;;;;;;;19.63;16.20;;;13.30;99.90;;;;;;5034201;28;20571;-82
2021/05/30 06:40:20;;;;;;;17.90;16.10;;;13.40;99.90;;;;;;5050784;28;20413;-83
2021/05/30 06:42:47;;;;;;;18.57;16.67;;;13.60;99.90;;;;;;5034465;28;20419;-82
2021/05/30 06:45:25;;;;;;;18.00;16.10;;;13.70;99.90;;;;;;5033853;28;20495;-96
2021/05/30 06:48:00;;;;;;;10.80;9.90;;;13.90;99.90;;;;;;5036035;28;20412;-96
2021/05/30 06:50:26;;;;;;;16.07;14.47;;;14.00;99.90;;;;;;5039690;28;20430;-87
2021/05/30 06:52:53;;;;;;;19.20;14.30;;;14.00;99.90;;;;;;5034677;28;20417;-87
2021/05/30 06:55:20;;;;;;;15.03;13.63;;;13.90;99.90;;;;;;5033901;28;20462;-87
2021/05/30 06:57:46;;;;;;;14.50;13.00;;;14.00;99.90;;;;;;5034977;28;20892;-87
2021/05/30 07:00:13;;;;;;;15.10;13.60;;;14.10;99.90;;;;;;5033299;28;20498;-87
2021/05/30 07:02:39;;;;;;;14.83;13.23;;;14.20;99.90;;;;;;5051389;28;20176;-87
2021/05/30 07:05:06;;;;;;;15.30;13.80;;;14.10;99.90;;;;;;5033810;28;20498;-88
2021/05/30 07:07:32;;;;;;;14.80;13.40;;;14.30;99.90;;;;;;5051455;28;20426;-87
2021/05/30 07:09:57;;;;;;;13.47;12.27;;;14.60;99.90;;;;;;5051928;28;20415;-88
2021/05/30 07:12:26;;;;;;;14.40;12.50;;;14.80;99.90;;;;;;5033421;28;20181;-87
2021/05/30 07:14:52;;;;;;;12.83;11.50;;;14.70;99.90;;;;;;5034056;28;20216;-87
2021/05/30 07:17:21;;;;;;;13.43;11.67;;;14.70;99.90;;;;;;5033416;28;20470;-87
2021/05/30 07:19:48;;;;;;;31.67;23.03;;;14.90;99.90;;;;;;5052034;28;20473;-88
2021/05/30 07:22:17;;;;;;;18.10;15.00;;;15.20;99.90;;;;;;5033366;28;20929;-89
2021/05/30 07:24:43;;;;;;;10.53;9.60;;;15.40;99.40;;;;;;5033946;28;20412;-88
2021/05/30 07:27:09;;;;;;;10.77;9.67;;;15.60;98.50;;;;;;5035403;28;20452;-93
2021/05/30 07:29:40;;;;;;;116.03;75.47;;;15.80;97.60;;;;;;5039674;28;20191;-89
2021/05/30 07:32:06;;;;;;;98.13;65.53;;;16.00;98.00;;;;;;5038388;28;20427;-89
2021/05/30 07:34:32;;;;;;;31.30;23.43;;;16.40;97.50;;;;;;5054977;28;20205;-89
2021/05/30 07:36:58;;;;;;;45.03;33.37;;;16.70;96.50;;;;;;5037671;28;20459;-86
2021/05/30 07:39:23;;;;;;;28.57;21.90;;;17.00;95.60;;;;;;5054981;28;20182;-88
2021/05/30 07:41:49;;;;;;;9.70;8.87;;;17.20;94.80;;;;;;5043994;28;20510;-93
2021/05/30 07:44:15;;;;;;;123.43;75.40;;;17.50;94.30;;;;;;5055008;28;20184;-82
2021/05/30 07:46:41;;;;;;;10.67;9.77;;;17.50;94.30;;;;;;5037272;28;20177;-82
2021/05/30 07:49:07;;;;;;;9.70;8.77;;;17.70;92.40;;;;;;5055115;28;20530;-81
2021/05/30 07:51:33;;;;;;;33.47;26.97;;;17.50;92.50;;;;;;5054157;28;20400;-82
2021/05/30 07:53:59;;;;;;;51.37;42.00;;;17.70;93.40;;;;;;5037153;28;20174;-81
2021/05/30 07:56:24;;;;;;;8.90;8.20;;;18.00;93.30;;;;;;5053741;28;20205;-81
2021/05/30 07:58:51;;;;;;;25.33;20.57;;;18.00;90.40;;;;;;5055088;28;20947;-81
2021/05/30 08:01:16;;;;;;;21.73;17.43;;;17.80;90.50;;;;;;5054146;28;20182;-81
2021/05/30 08:03:42;;;;;;;8.73;7.97;;;18.00;91.00;;;;;;5036603;28;20511;-81
2021/05/30 08:06:08;;;;;;;14.47;13.10;;;18.10;87.10;;;;;;5054679;28;20189;-80
2021/05/30 08:08:33;;;;;;;14.50;12.90;;;18.10;90.10;;;;;;5036056;28;20176;-81
2021/05/30 08:10:59;;;;;;;13.83;12.47;;;18.30;90.70;;;;;;5054529;28;20180;-81
2021/05/30 08:13:26;;;;;;;8.97;8.23;;;18.60;90.40;;;;;;5053882;28;20209;-83
2021/05/30 08:15:52;;;;;;;6.20;5.70;;;18.90;88.10;;;;;;5054093;28;20464;-82
2021/05/30 08:18:18;;;;;;;6.07;5.60;;;19.10;83.10;;;;;;5053622;28;20416;-83
2021/05/30 08:20:43;;;;;;;7.57;6.97;;;19.00;79.20;;;;;;5054393;28;20182;-81
2021/05/30 08:23:09;;;;;;;7.13;6.43;;;18.80;82.30;;;;;;5054529;28;20185;-82
2021/05/30 08:25:35;;;;;;;8.27;7.57;;;19.10;85.20;;;;;;5035765;28;20174;-81
2021/05/30 08:28:01;;;;;;;8.60;7.80;;;19.10;83.50;;;;;;5036284;28;20176;-82
2021/05/30 08:30:26;;;;;;;8.37;7.57;;;19.30;84.40;;;;;;5052110;28;20205;-82
2021/05/30 08:32:52;;;;;;;7.67;7.07;;;19.50;83.50;;;;;;5035914;28;20249;-82
2021/05/30 08:35:18;;;;;;;69.13;59.43;;;19.80;82.30;;;;;;5051866;28;20307;-82
2021/05/30 08:37:44;;;;;;;58.20;49.50;;;20.00;80.00;;;;;;5053564;28;20400;-81
2021/05/30 08:40:12;;;;;;;36.47;29.13;;;20.20;78.70;;;;;;5053624;28;20201;-81
2021/05/30 08:42:38;;;;;;;23.10;20.70;;;20.40;78.60;;;;;;5052129;28;20408;-82
2021/05/30 08:45:05;;;;;;;14.87;13.37;;;20.50;77.40;;;;;;5053010;28;20424;-82
2021/05/30 08:47:31;;;;;;;11.90;10.70;;;20.70;76.40;;;;;;5052202;28;20177;-82
2021/05/30 08:49:57;;;;;;;14.77;13.27;;;20.90;76.00;;;;;;5034905;28;20409;-82
2021/05/30 08:52:23;;;;;;;8.77;8.17;;;21.00;77.20;;;;;;5051885;28;20417;-82
2021/05/30 08:54:49;;;;;;;7.60;7.10;;;21.10;78.40;;;;;;5052414;28;20227;-83
2021/05/30 08:57:14;;;;;;;347.37;238.90;;;21.20;77.00;;;;;;5053300;28;20182;-82
2021/05/30 08:59:55;;;;;;;114.93;81.83;;;21.30;76.50;;;;;;5053382;28;20419;-82
2021/05/30 09:02:21;;;;;;;75.17;54.77;;;21.50;76.00;;;;;;5052926;28;20565;-82
2021/05/30 09:04:51;;;;;;;35.20;29.67;;;21.50;71.20;;;;;;5053455;28;20789;-81
2021/05/30 09:07:18;;;;;;;27.27;22.00;;;21.50;73.90;;;;;;5052850;28;20424;-82
2021/05/30 09:09:46;;;;;;;22.13;19.77;;;21.70;71.80;;;;;;5035503;28;20417;-81
2021/05/30 09:12:31;;;;;;;7.57;6.97;;;21.80;71.20;;;;;;5053300;28;20416;-81
2021/05/30 09:14:58;;;;;;;6.80;6.40;;;21.90;69.20;;;;;;5051945;28;20448;-81
2021/05/30 09:17:25;;;;;;;6.20;5.73;;;21.50;62.10;;;;;;5034803;28;20413;-81
2021/05/30 09:19:52;;;;;;;6.33;5.93;;;21.30;63.60;;;;;;5052897;28;20784;-81
2021/05/30 09:22:23;;;;;;;7.83;7.23;;;21.20;69.30;;;;;;5052985;28;20452;-82
2021/05/30 09:24:52;;;;;;;9.13;8.40;;;21.20;68.20;;;;;;5053199;28;20421;-80
2021/05/30 09:27:22;;;;;;;6.80;6.30;;;21.40;72.90;;;;;;5052727;28;20900;-82
2021/05/30 09:30:09;;;;;;;6.00;5.70;;;21.60;70.60;;;;;;5052764;28;20412;-81
2021/05/30 09:33:13;;;;;;;6.90;6.30;;;21.70;67.20;;;;;;5052607;28;20479;-81
2021/05/30 09:35:55;;;;;;;7.80;7.20;;;21.80;67.30;;;;;;5052313;28;20456;-81
2021/05/30 09:38:35;;;;;;;8.10;7.40;;;21.90;67.00;;;;;;5034539;28;20412;-82
2021/05/30 09:41:07;;;;;;;6.40;6.00;;;22.10;65.80;;;;;;5052843;28;20411;-80
2021/05/30 09:43:36;;;;;;;7.07;6.57;;;22.30;64.80;;;;;;5052082;28;20491;-80
2021/05/30 09:46:13;;;;;;;5.73;5.30;;;22.40;65.00;;;;;;5052745;28;20412;-81
2021/05/30 09:48:56;;;;;;;6.13;5.70;;;22.50;65.00;;;;;;5051269;28;20412;-81
2021/05/30 09:51:40;;;;;;;6.67;6.27;;;22.70;65.60;;;;;;5033933;28;20511;-82
2021/05/30 09:54:13;;;;;;;6.20;5.80;;;22.70;63.10;;;;;;5052347;28;20416;-81
2021/05/30 09:56:54;;;;;;;6.00;5.70;;;22.50;61.60;;;;;;5034035;28;20644;-81
2021/05/30 09:59:26;;;;;;;6.27;5.87;;;22.30;61.10;;;;;;5052356;28;20416;-82
2021/05/30 10:01:59;;;;;;;82.00;73.27;;;22.20;60.10;;;;;;5052582;28;20413;-80
2021/05/30 10:04:27;;;;;;;19.10;17.30;;;22.20;62.20;;;;;;5033884;28;20474;-80
2021/05/30 10:06:55;;;;;;;8.77;7.60;;;22.40;66.50;;;;;;5052414;28;20912;-81
2021/05/30 10:09:21;;;;;;;8.40;7.80;;;22.60;63.30;;;;;;5052033;28;20427;-82
2021/05/30 10:11:47;;;;;;;6.53;6.13;;;22.80;62.40;;;;;;5034680;28;20860;-81
2021/05/30 10:14:13;;;;;;;8.20;7.50;;;22.90;61.90;;;;;;5052070;28;20447;-80
2021/05/30 10:16:39;;;;;;;8.33;7.73;;;23.10;62.10;;;;;;5051175;28;20393;-80
2021/05/30 10:19:10;;;;;;;7.23;6.70;;;23.20;59.80;;;;;;5052360;28;20662;-81
2021/05/30 10:22:00;;;;;;;6.00;5.70;;;23.30;59.00;;;;;;5050310;28;20900;-81
2021/05/30 10:24:27;;;;;;;6.83;6.43;;;23.40;60.20;;;;;;5033144;28;20499;-81
2021/05/30 10:27:21;;;;;;;6.23;5.83;;;23.50;59.20;;;;;;5034404;28;20768;-81
2021/05/30 10:30:13;;;;;;;6.17;5.70;;;23.50;56.90;;;;;;5051600;28;20458;-81
2021/05/30 10:32:43;;;;;;;5.40;5.10;;;23.60;57.80;;;;;;5051385;28;20428;-80
2021/05/30 10:35:23;;;;;;;6.33;5.90;;;23.80;59.50;;;;;;5052219;28;20448;-81
2021/05/30 10:37:50;;;;;;;15.23;13.73;;;23.80;58.00;;;;;;5051841;28;20397;-82
2021/05/30 10:40:22;;;;;;;23.30;20.87;;;23.90;56.00;;;;;;5034192;28;20492;-82
2021/05/30 10:43:13;;;;;;;7.03;6.53;;;23.90;54.80;;;;;;5051526;28;20448;-81
2021/05/30 10:45:42;;;;;;;6.47;6.17;;;24.00;55.70;;;;;;5050024;28;20993;-81
2021/05/30 10:48:09;;;;;;;5.80;5.60;;;24.00;54.40;;;;;;5051808;28;20799;-81
2021/05/30 10:53:49;;;;;;;5.30;5.00;;;24.10;53.50;;;;;;5040829;28;20493;-82
2021/05/30 10:56:22;;;;;;;5.77;5.37;;;24.10;52.20;;;;;;5051627;28;20475;-81
2021/05/30 10:59:06;;;;;;;4.93;4.53;;;24.10;53.40;;;;;;5051372;28;20419;-81
2021/05/30 11:01:35;;;;;;;4.63;4.43;;;24.10;54.40;;;;;;5053899;28;20821;-81
2021/05/30 11:04:29;;;;;;;5.50;5.07;;;24.20;54.60;;;;;;5055892;28;20465;-81
2021/05/30 11:07:00;;;;;;;5.53;5.23;;;24.20;53.80;;;;;;5054549;28;20419;-81
2021/05/30 11:09:51;;;;;;;5.47;5.17;;;24.10;52.90;;;;;;5055031;28;20392;-82
2021/05/30 11:12:23;;;;;;;5.40;5.10;;;24.10;54.60;;;;;;5055722;28;20415;-82
2021/05/30 11:15:08;;;;;;;5.30;5.00;;;24.20;54.40;;;;;;5037207;28;20522;-81
2021/05/30 11:17:42;;;;;;;13.67;12.30;;;24.20;53.40;;;;;;5053670;28;20217;-82
2021/05/30 11:20:22;;;;;;;12.43;11.32;;;24.20;54.00;;;;;;5054836;28;20439;-81
2021/05/30 11:22:56;;;;;;;5.60;5.30;;;24.40;54.30;;;;;;5037114;28;20185;-81
2021/05/30 11:25:31;;;;;;;5.40;5.10;;;24.50;54.20;;;;;;5054482;28;20407;-81
2021/05/30 11:28:00;;;;;;;5.67;5.27;;;24.30;53.90;;;;;;5055409;28;20404;-81
2021/05/30 11:30:40;;;;;;;5.87;5.47;;;24.30;55.00;;;;;;5054723;28;20416;-83
2021/05/30 11:33:08;;;;;;;5.50;5.20;;;24.20;54.10;;;;;;5055488;28;20447;-81
2021/05/30 11:35:34;;;;;;;6.17;5.77;;;24.20;54.70;;;;;;5054340;28;20481;-82
2021/05/30 11:38:00;;;;;;;5.63;5.33;;;24.20;54.90;;;;;;5055221;28;20424;-82
2021/05/30 11:40:28;;;;;;;6.20;5.80;;;24.20;53.40;;;;;;5054574;28;20177;-82
2021/05/30 11:42:54;;;;;;;5.50;5.20;;;24.20;55.60;;;;;;5055054;28;20492;-81
2021/05/30 11:45:37;;;;;;;6.13;5.63;;;23.90;54.00;;;;;;5054962;28;20824;-81
2021/05/30 11:48:08;;;;;;;12.33;11.23;;;23.90;55.90;;;;;;5055338;28;20173;-82
2021/05/30 11:50:37;;;;;;;6.47;6.07;;;23.90;55.60;;;;;;5054314;28;20443;-82
2021/05/30 11:53:23;;;;;;;6.10;5.80;;;23.90;55.60;;;;;;5037211;28;20404;-81
2021/05/30 11:55:49;;;;;;;6.27;5.97;;;23.60;55.60;;;;;;5054217;28;20440;-81
2021/05/30 11:58:15;;;;;;;6.33;5.83;;;23.60;56.40;;;;;;5054771;28;20412;-81
2021/05/30 12:00:43;;;;;;;5.63;5.33;;;23.30;54.50;;;;;;5054074;28;20427;-81
2021/05/30 12:03:11;;;;;;;6.10;5.70;;;23.30;56.20;;;;;;5037136;28;20174;-81
2021/05/30 12:05:37;;;;;;;5.70;5.40;;;23.30;54.90;;;;;;5054032;28;20774;-82
2021/05/30 12:08:13;;;;;;;5.70;5.40;;;23.30;55.80;;;;;;5054857;28;20817;-81
2021/05/30 12:10:49;;;;;;;5.47;5.17;;;23.40;54.50;;;;;;5053907;28;20420;-81
2021/05/30 12:13:35;;;;;;;5.90;5.60;;;22.90;53.70;;;;;;5052648;28;20529;-81
2021/05/30 12:16:19;;;;;;;5.78;5.40;;;22.80;56.40;;;;;;5054277;28;20505;-81
2021/05/30 12:18:53;;;;;;;5.82;5.43;;;22.90;55.50;;;;;;5052890;28;20423;-90
2021/05/30 12:21:20;;;;;;;5.60;5.30;;;23.20;59.60;;;;;;5054631;28;20227;-88
2021/05/30 12:23:46;;;;;;;11.83;10.83;;;23.40;56.60;;;;;;5053519;28;20451;-88
2021/05/30 12:26:18;;;;;;;6.40;6.00;;;23.60;58.60;;;;;;5054332;28;20408;-88
2021/05/30 12:28:45;;;;;;;5.50;5.20;;;23.80;56.70;;;;;;5053504;28;20777;-88
2021/05/30 12:31:15;;;;;;;5.10;4.80;;;23.90;55.40;;;;;;5054115;28;20942;-88
2021/05/30 12:33:57;;;;;;;7.83;5.50;;;24.10;58.20;;;;;;5054028;28;20491;-87
2021/05/30 12:36:39;;;;;;;5.20;4.80;;;24.00;54.90;;;;;;5036717;28;21011;-88
2021/05/30 12:39:04;;;;;;;4.73;4.47;;;23.90;56.20;;;;;;5054653;28;20392;-87
2021/05/30 12:41:46;;;;;;;5.70;5.30;;;23.90;54.90;;;;;;5052676;28;20424;-88
2021/05/30 12:44:22;;;;;;;4.97;4.67;;;24.00;56.90;;;;;;5054358;28;20253;-88